Terminal Aerodrome Forecast
Issued by NWS

Home | Current Version | Previous Version | Text Only | Print | Product List | Glossary On
Versions: 1 2 3 4 5 6 7 8 9 10 11 12 13 14 15 16
903
FTUS42 KGSP 242058 AAB
TAFGMU
TAF AMD
KGMU 242058Z 2421/2518 21003KT P6SM SCT050 BKN080
      TEMPO 2421/2423 SCT027
     FM250400 VRB03KT P6SM FEW040 SCT150
     FM251400 22003KT P6SM SCT070=

USA.gov is the U.S. government's official web portal to all federal, state and local government web resources and services.